createdAt,value
2018-03-26T00:00:06.106Z,91.40
2018-03-26T00:01:59.090Z,93.40
2018-03-26T00:02:59.099Z,89.10
2018-03-26T00:04:53.070Z,92.10
2018-03-26T00:05:55.018Z,99.60
2018-03-26T00:07:46.410Z,92.40
2018-03-26T00:08:46.414Z,97.90
2018-03-26T00:10:40.453Z,95.60
2018-03-26T00:11:40.421Z,94.70
2018-03-26T00:13:32.689Z,95.60
2018-03-26T00:14:32.330Z,94.60
2018-03-26T00:16:26.381Z,100.10
2018-03-26T00:17:25.383Z,93.00
2018-03-26T00:19:18.365Z,96.40
2018-03-26T00:20:18.338Z,99.10
2018-03-26T00:22:11.401Z,101.20
2018-03-26T00:23:12.214Z,95.50
2018-03-26T00:25:06.253Z,98.50
2018-03-26T00:26:06.163Z,96.80
2018-03-26T00:27:57.348Z,98.00
2018-03-26T00:28:57.133Z,99.40
2018-03-26T00:30:50.317Z,106.40
2018-03-26T00:31:50.179Z,102.40
2018-03-26T00:33:43.122Z,104.50
2018-03-26T00:34:45.086Z,102.70
2018-03-26T00:36:36.583Z,99.20
2018-03-26T00:37:36.043Z,99.60
2018-03-26T00:39:29.530Z,98.70
2018-03-26T00:40:30.937Z,97.30
2018-03-26T00:42:23.891Z,100.80
2018-03-26T00:43:21.932Z,99.40
2018-03-26T00:45:16.381Z,104.90
2018-03-26T00:46:15.842Z,102.60
2018-03-26T00:48:08.407Z,102.60
2018-03-26T00:49:07.873Z,99.30
2018-03-26T00:51:00.952Z,100.70
2018-03-26T00:52:00.914Z,100.90
2018-03-26T00:53:58.812Z,96.90
2018-03-26T00:54:54.826Z,98.70
2018-03-26T00:56:48.812Z,97.60
2018-03-26T00:57:47.833Z,98.90
2018-03-26T00:59:40.806Z,99.10
2018-03-26T01:00:39.794Z,100.30
2018-03-26T01:02:36.686Z,97.00
2018-03-26T01:03:33.699Z,91.80
2018-03-26T01:05:26.657Z,97.50
2018-03-26T01:06:25.704Z,95.50
2018-03-26T01:08:18.647Z,96.20
2018-03-26T01:09:18.675Z,94.90
2018-03-26T01:11:12.645Z,95.30
2018-03-26T01:12:11.601Z,91.00
2018-03-26T01:14:04.823Z,94.10
2018-03-26T01:15:04.667Z,92.00
2018-03-26T01:16:59.007Z,94.80
2018-03-26T01:17:57.548Z,90.30
2018-03-26T01:19:50.567Z,88.90
2018-03-26T01:20:53.457Z,87.10
2018-03-26T01:22:43.453Z,88.80
2018-03-26T01:23:43.418Z,91.00
2018-03-26T01:25:36.388Z,90.50
2018-03-26T01:26:36.365Z,93.40
2018-03-26T01:28:29.364Z,94.20
2018-03-26T01:29:30.308Z,92.00
2018-03-26T01:31:25.275Z,89.60
2018-03-26T01:32:22.273Z,90.50
2018-03-26T01:34:15.288Z,91.40
2018-03-26T01:35:16.222Z,91.70
2018-03-26T01:37:08.198Z,92.10
2018-03-26T01:38:08.188Z,92.00
2018-03-26T01:40:04.145Z,94.30
2018-03-26T01:41:01.185Z,90.40
2018-03-26T01:42:57.569Z,96.40
2018-03-26T01:43:55.099Z,89.80
2018-03-26T01:45:47.622Z,93.30
2018-03-26T01:46:47.072Z,97.10
2018-03-26T01:48:40.106Z,93.00
2018-03-26T01:49:41.012Z,95.60
2018-03-26T01:51:34.453Z,92.80
2018-03-26T01:52:33.980Z,92.60
2018-03-26T01:54:25.987Z,90.60
2018-03-26T01:55:25.936Z,93.80
2018-03-26T01:57:20.895Z,90.60
2018-03-26T01:58:19.875Z,93.20
2018-03-26T02:00:13.352Z,89.80
2018-03-26T02:01:11.840Z,90.50
2018-03-26T02:03:04.917Z,92.50
2018-03-26T02:04:04.884Z,89.30
2018-03-26T02:05:58.732Z,91.70
2018-03-26T02:06:57.764Z,93.10
2018-03-26T02:08:50.805Z,93.80
2018-03-26T02:09:51.682Z,87.80
2018-03-26T02:11:43.705Z,90.50
2018-03-26T02:12:43.665Z,91.30
2018-03-26T02:14:36.649Z,91.80
2018-03-26T02:15:36.624Z,94.40
2018-03-26T02:17:30.605Z,90.50
2018-03-26T02:18:29.586Z,94.60
2018-03-26T02:20:22.637Z,93.10
2018-03-26T02:21:22.567Z,91.90
2018-03-26T02:23:15.528Z,95.80
2018-03-26T02:24:15.495Z,96.40
2018-03-26T02:26:09.007Z,92.90
2018-03-26T02:27:08.467Z,89.90
2018-03-26T02:29:01.461Z,89.50
2018-03-26T02:30:01.430Z,90.80
2018-03-26T02:31:54.497Z,90.00
2018-03-26T02:32:54.372Z,91.80
2018-03-26T02:34:50.930Z,92.60
2018-03-26T02:35:47.339Z,91.50
2018-03-26T02:37:41.281Z,87.10
2018-03-26T02:38:40.296Z,93.30
2018-03-26T02:40:33.242Z,86.40
2018-03-26T02:41:33.256Z,96.30
2018-03-26T02:43:28.203Z,88.00
2018-03-26T02:44:26.220Z,88.80
2018-03-26T02:46:19.188Z,91.60
2018-03-26T02:47:19.151Z,89.10
2018-03-26T02:49:12.244Z,92.90
2018-03-26T02:50:12.132Z,93.40
2018-03-26T02:52:05.111Z,95.40
2018-03-26T02:53:06.055Z,91.20
2018-03-26T02:54:58.082Z,89.90
2018-03-26T02:55:58.035Z,89.80
2018-03-26T02:57:56.049Z,90.10
2018-03-26T02:58:50.980Z,94.90
2018-03-26T03:00:44.048Z,90.70
2018-03-26T03:01:43.950Z,92.70
2018-03-26T03:03:36.903Z,93.70
2018-03-26T03:04:36.913Z,100.10
2018-03-26T03:06:31.969Z,97.50
2018-03-26T03:07:29.873Z,99.70
2018-03-26T03:09:24.875Z,96.00
2018-03-26T03:10:22.828Z,97.80
2018-03-26T03:12:16.301Z,99.20
2018-03-26T03:13:15.779Z,101.00
2018-03-26T03:15:08.801Z,99.30
2018-03-26T03:16:08.729Z,99.60
2018-03-26T03:18:01.747Z,98.90
2018-03-26T03:19:02.694Z,100.90
2018-03-26T03:20:55.404Z,101.20
2018-03-26T03:21:54.707Z,99.90
2018-03-26T03:23:48.580Z,109.60
2018-03-26T03:24:47.608Z,99.90
2018-03-26T03:26:41.125Z,97.00
2018-03-26T03:27:40.587Z,104.90
2018-03-26T03:29:33.622Z,99.90
2018-03-26T03:30:33.533Z,102.50
2018-03-26T03:32:26.509Z,96.70
2018-03-26T03:33:26.515Z,100.30
2018-03-26T03:35:21.521Z,98.90
2018-03-26T03:36:19.430Z,101.40
2018-03-26T03:38:12.462Z,102.10
2018-03-26T03:39:12.424Z,101.40
2018-03-26T03:41:05.403Z,100.50
2018-03-26T03:42:05.370Z,96.20
2018-03-26T03:43:58.471Z,104.50
2018-03-26T03:44:58.294Z,104.50
2018-03-26T03:46:52.254Z,100.20
2018-03-26T03:47:52.276Z,97.50
2018-03-26T03:49:44.453Z,101.20
2018-03-26T03:50:44.235Z,98.30
2018-03-26T03:52:37.214Z,105.50
2018-03-26T03:53:37.203Z,109.60
2018-03-26T03:55:31.175Z,100.90
2018-03-26T03:56:31.174Z,100.90
2018-03-26T03:58:24.605Z,106.50
2018-03-26T03:59:25.052Z,103.50
2018-03-26T04:01:16.160Z,104.50
2018-03-26T04:02:17.096Z,98.60
2018-03-26T04:04:09.580Z,102.40
2018-03-26T04:05:09.065Z,98.30
2018-03-26T04:07:04.450Z,101.70
2018-03-26T04:08:01.978Z,98.70
2018-03-26T04:09:55.948Z,100.20
2018-03-26T04:10:54.941Z,101.20
2018-03-26T04:12:47.952Z,97.70
2018-03-26T04:13:47.906Z,100.00
2018-03-26T04:15:41.865Z,96.80
2018-03-26T04:16:40.901Z,98.40
2018-03-26T04:18:33.830Z,97.70
2018-03-26T04:19:33.812Z,98.70
2018-03-26T04:21:26.769Z,98.40
2018-03-26T04:22:26.769Z,97.20
2018-03-26T04:24:19.700Z,94.80
2018-03-26T04:25:19.711Z,102.00
2018-03-26T04:27:13.178Z,105.60
2018-03-26T04:28:13.666Z,103.30
2018-03-26T04:30:05.611Z,95.70
2018-03-26T04:31:05.612Z,91.00
2018-03-26T04:32:58.587Z,97.90
2018-03-26T04:33:58.566Z,96.90
2018-03-26T04:35:51.532Z,92.80
2018-03-26T04:36:51.544Z,94.10
2018-03-26T04:38:44.554Z,101.70
2018-03-26T04:39:44.488Z,94.10
2018-03-26T04:41:37.589Z,91.10
2018-03-26T04:42:37.552Z,94.20
2018-03-26T04:44:30.431Z,91.10
2018-03-26T04:45:30.401Z,91.20
2018-03-26T04:47:23.359Z,98.70
2018-03-26T04:48:23.406Z,96.50
2018-03-26T04:50:16.333Z,91.10
2018-03-26T04:51:24.893Z,98.30
2018-03-26T04:53:09.269Z,95.90
2018-03-26T04:54:09.278Z,90.80
2018-03-26T04:56:02.271Z,92.70
2018-03-26T04:57:02.213Z,92.90
2018-03-26T04:58:55.181Z,88.80
2018-03-26T04:59:55.191Z,93.70
2018-03-26T05:01:48.177Z,87.90
2018-03-26T05:02:48.131Z,85.00
2018-03-26T05:04:41.091Z,90.40
2018-03-26T05:05:41.083Z,86.00
2018-03-26T05:07:34.190Z,78.10
2018-03-26T05:08:34.052Z,88.00
2018-03-26T05:10:27.005Z,86.10
2018-03-26T05:11:27.006Z,87.20
2018-03-26T05:13:20.004Z,80.10
2018-03-26T05:14:19.983Z,81.70
2018-03-26T05:16:12.960Z,86.30
2018-03-26T05:17:12.916Z,80.10
2018-03-26T05:19:06.050Z,84.50
2018-03-26T05:20:06.013Z,86.30
2018-03-26T05:21:58.961Z,78.90
2018-03-26T05:22:58.938Z,78.40
2018-03-26T05:24:51.926Z,83.00
2018-03-26T05:25:51.884Z,77.50
2018-03-26T05:27:44.900Z,78.40
2018-03-26T05:28:44.853Z,78.10
2018-03-26T05:30:37.989Z,80.30
2018-03-26T05:31:37.803Z,77.90
2018-03-26T05:33:30.789Z,73.20
2018-03-26T05:34:30.790Z,75.00
2018-03-26T05:36:23.747Z,70.70
2018-03-26T05:37:23.729Z,75.10
2018-03-26T05:38:23.730Z,75.90
2018-03-26T05:39:23.736Z,73.50
2018-03-26T05:40:24.789Z,70.00
2018-03-26T05:41:26.763Z,74.00
2018-03-26T05:43:19.079Z,79.50
2018-03-26T05:44:16.806Z,101.80
2018-03-26T05:46:10.777Z,69.00
2018-03-26T05:47:09.687Z,72.70
2018-03-26T05:49:04.615Z,72.70
2018-03-26T05:50:02.656Z,77.40
2018-03-26T05:51:56.591Z,68.90
2018-03-26T05:52:55.572Z,70.30
2018-03-26T05:54:48.600Z,66.50
2018-03-26T05:55:48.556Z,64.40
2018-03-26T05:57:41.504Z,67.10
2018-03-26T05:58:41.499Z,62.80
2018-03-26T06:00:34.490Z,66.70
2018-03-26T06:01:34.452Z,65.70
2018-03-26T06:03:27.410Z,64.30
2018-03-26T06:04:27.418Z,62.30
2018-03-26T06:06:20.447Z,60.80
2018-03-26T06:07:20.362Z,60.30
2018-03-26T06:09:13.399Z,62.10
2018-03-26T06:10:13.345Z,63.00
2018-03-26T06:12:06.419Z,61.00
2018-03-26T06:13:06.300Z,64.40
2018-03-26T06:14:59.248Z,62.40
2018-03-26T06:15:59.243Z,61.80
2018-03-26T06:17:52.344Z,67.60
2018-03-26T06:18:52.331Z,60.80
2018-03-26T06:20:45.249Z,60.90
2018-03-26T06:21:45.255Z,63.70
2018-03-26T06:23:38.709Z,65.10
2018-03-26T06:24:38.214Z,61.30
2018-03-26T06:26:31.173Z,57.40
2018-03-26T06:27:31.173Z,63.90
2018-03-26T06:29:24.196Z,57.90
2018-03-26T06:30:25.151Z,62.90
2018-03-26T06:32:17.491Z,55.70
2018-03-26T06:33:18.867Z,60.90
2018-03-26T06:35:10.077Z,57.20
2018-03-26T06:36:10.039Z,59.80
2018-03-26T06:37:10.043Z,63.30
2018-03-26T06:38:10.045Z,59.20
2018-03-26T06:39:10.046Z,62.60
2018-03-26T06:40:10.047Z,63.30
2018-03-26T06:41:10.056Z,57.20
2018-03-26T06:42:10.069Z,56.40
2018-03-26T06:43:10.071Z,52.30
2018-03-26T06:44:10.144Z,53.10
2018-03-26T06:46:02.966Z,55.50
2018-03-26T06:47:02.959Z,60.10
2018-03-26T06:48:55.912Z,48.80
2018-03-26T06:49:55.914Z,53.60
2018-03-26T06:51:49.403Z,52.50
2018-03-26T06:52:48.873Z,50.00
2018-03-26T06:54:41.844Z,51.30
2018-03-26T06:55:41.838Z,47.70
2018-03-26T06:57:34.843Z,49.80
2018-03-26T06:58:34.796Z,51.30
2018-03-26T06:59:34.805Z,50.30
2018-03-26T07:00:34.791Z,47.30
2018-03-26T07:01:34.799Z,52.70
2018-03-26T07:02:34.806Z,49.20
2018-03-26T07:03:34.813Z,54.10
2018-03-26T07:04:34.807Z,51.60
2018-03-26T07:05:34.818Z,49.00
2018-03-26T07:06:34.822Z,53.20
2018-03-26T07:07:34.819Z,49.80
2018-03-26T07:08:34.828Z,50.30
2018-03-26T07:09:34.826Z,50.50
2018-03-26T07:10:34.850Z,53.40
2018-03-26T07:11:34.844Z,54.20
2018-03-26T07:12:34.837Z,49.10
2018-03-26T07:13:34.845Z,46.20
2018-03-26T07:14:34.848Z,51.10
2018-03-26T07:15:34.857Z,57.30
2018-03-26T07:16:34.856Z,51.90
2018-03-26T07:17:34.871Z,48.00
2018-03-26T07:18:34.868Z,50.30
2018-03-26T07:19:34.872Z,49.40
2018-03-26T07:20:34.882Z,46.60
2018-03-26T07:21:34.881Z,43.70
2018-03-26T07:22:34.881Z,40.50
2018-03-26T07:23:34.888Z,45.60
2018-03-26T07:24:34.890Z,44.40
2018-03-26T07:25:34.905Z,41.90
2018-03-26T07:26:34.908Z,44.90
2018-03-26T07:27:34.939Z,44.10
2018-03-26T07:28:34.921Z,42.40
2018-03-26T07:29:34.953Z,42.80
2018-03-26T07:30:34.930Z,36.30
2018-03-26T07:31:34.941Z,39.90
2018-03-26T07:32:34.946Z,39.00
2018-03-26T07:33:34.957Z,37.00
2018-03-26T07:34:34.961Z,37.60
2018-03-26T07:35:34.996Z,37.90
2018-03-26T07:36:34.975Z,36.60
2018-03-26T07:37:35.007Z,37.10
2018-03-26T07:38:35.002Z,35.10
2018-03-26T07:39:35.003Z,37.90
2018-03-26T07:40:35.021Z,36.90
2018-03-26T07:41:35.022Z,35.10
2018-03-26T07:42:35.045Z,35.90
2018-03-26T07:43:35.043Z,35.00
2018-03-26T07:44:35.063Z,33.30
2018-03-26T07:45:35.067Z,36.60
2018-03-26T07:46:35.076Z,36.80
2018-03-26T07:47:35.097Z,36.30
2018-03-26T07:48:35.106Z,36.90
2018-03-26T07:49:35.119Z,35.30
2018-03-26T07:50:35.131Z,33.40
2018-03-26T07:51:35.148Z,32.90
2018-03-26T07:52:35.159Z,39.20
2018-03-26T07:53:35.163Z,32.70
2018-03-26T07:54:35.177Z,31.40
2018-03-26T07:55:35.186Z,29.90
2018-03-26T07:56:35.205Z,31.30
2018-03-26T07:57:35.240Z,27.70
2018-03-26T07:58:35.225Z,26.60
2018-03-26T07:59:35.250Z,27.30
2018-03-26T08:00:35.279Z,24.60
2018-03-26T08:01:35.267Z,25.10
2018-03-26T08:02:35.282Z,23.20
2018-03-26T08:03:35.292Z,25.80
2018-03-26T08:04:35.312Z,22.30
2018-03-26T08:05:35.326Z,23.50
2018-03-26T08:06:35.354Z,21.80
2018-03-26T08:07:35.354Z,20.50
2018-03-26T08:08:35.368Z,22.40
2018-03-26T08:09:35.384Z,19.20
2018-03-26T08:10:35.398Z,20.30
2018-03-26T08:11:35.407Z,19.30
2018-03-26T08:12:35.425Z,18.30
2018-03-26T08:13:35.434Z,17.70
2018-03-26T08:14:35.504Z,16.50
2018-03-26T08:15:35.577Z,15.50
2018-03-26T08:16:35.474Z,14.50
2018-03-26T08:17:35.538Z,15.60
2018-03-26T08:18:35.503Z,14.40
2018-03-26T08:19:35.556Z,14.60
2018-03-26T08:20:35.537Z,13.80
2018-03-26T08:21:35.574Z,12.90
2018-03-26T08:22:35.565Z,16.10
2018-03-26T08:23:35.584Z,15.50
2018-03-26T08:24:35.594Z,13.40
2018-03-26T08:25:35.611Z,13.20
2018-03-26T08:26:35.625Z,12.60
2018-03-26T08:27:35.641Z,13.70
2018-03-26T08:28:35.648Z,13.30
2018-03-26T08:29:35.667Z,14.00
2018-03-26T08:30:35.691Z,13.00
2018-03-26T08:31:35.713Z,12.40
2018-03-26T08:32:35.727Z,14.40
2018-03-26T08:33:35.738Z,12.90
2018-03-26T08:34:35.747Z,13.10
2018-03-26T08:35:35.766Z,14.00
2018-03-26T08:36:35.791Z,14.70
2018-03-26T08:37:35.797Z,15.40
2018-03-26T08:38:35.816Z,18.90
2018-03-26T08:39:35.837Z,15.00
2018-03-26T08:40:35.899Z,14.20
2018-03-26T08:41:35.869Z,13.50
2018-03-26T08:42:35.905Z,15.60
2018-03-26T08:43:35.914Z,15.60
2018-03-26T08:44:35.920Z,14.70
2018-03-26T08:45:35.939Z,13.60
2018-03-26T08:46:35.953Z,13.00
2018-03-26T08:47:35.973Z,13.30
2018-03-26T08:48:35.997Z,13.10
2018-03-26T08:49:36.004Z,13.30
2018-03-26T08:50:36.028Z,14.50
2018-03-26T08:51:36.043Z,14.30
2018-03-26T08:52:36.065Z,13.60
2018-03-26T08:53:36.136Z,14.10
2018-03-26T08:54:36.107Z,14.70
2018-03-26T08:55:36.120Z,15.30
2018-03-26T08:56:36.139Z,15.90
2018-03-26T08:57:36.148Z,16.00
2018-03-26T08:58:36.174Z,17.90
2018-03-26T08:59:36.212Z,16.20
2018-03-26T09:00:36.211Z,16.10
2018-03-26T09:01:36.234Z,17.00
2018-03-26T09:02:36.247Z,15.40
2018-03-26T09:03:36.265Z,15.60
2018-03-26T09:04:36.276Z,16.20
2018-03-26T09:05:36.306Z,15.60
2018-03-26T09:06:36.332Z,17.20
2018-03-26T09:07:36.333Z,16.80
2018-03-26T09:08:36.362Z,16.30
2018-03-26T09:09:36.376Z,15.40
2018-03-26T09:10:36.395Z,15.40
2018-03-26T09:11:36.424Z,13.70
2018-03-26T09:12:36.437Z,12.70
2018-03-26T09:13:36.450Z,12.10
2018-03-26T09:14:36.471Z,11.40
2018-03-26T09:15:36.493Z,10.70
2018-03-26T09:16:36.543Z,11.50
2018-03-26T09:17:36.549Z,11.80
2018-03-26T09:18:36.547Z,11.60
2018-03-26T09:19:36.562Z,10.60
2018-03-26T09:20:36.586Z,12.70
2018-03-26T09:21:36.601Z,12.70
2018-03-26T09:22:36.624Z,9.30
2018-03-26T09:23:36.639Z,11.20
2018-03-26T09:24:36.672Z,9.60
2018-03-26T09:25:36.680Z,8.90
2018-03-26T09:26:36.695Z,10.80
2018-03-26T09:27:36.720Z,9.10
2018-03-26T09:28:36.740Z,10.50
2018-03-26T09:29:36.796Z,9.20
2018-03-26T09:30:36.777Z,9.30
2018-03-26T09:31:36.800Z,9.10
2018-03-26T09:32:36.811Z,11.30
2018-03-26T09:33:36.835Z,9.00
2018-03-26T09:34:36.857Z,9.20
2018-03-26T09:35:36.876Z,10.10
2018-03-26T09:36:36.896Z,9.00
2018-03-26T09:37:36.912Z,9.40
2018-03-26T09:38:36.935Z,9.20
2018-03-26T09:39:36.955Z,9.50
2018-03-26T09:40:36.989Z,9.50
2018-03-26T09:41:36.998Z,9.60
2018-03-26T09:42:37.015Z,9.50
2018-03-26T09:43:37.040Z,10.90
2018-03-26T09:44:37.054Z,9.30
2018-03-26T09:45:37.083Z,10.00
2018-03-26T09:46:37.098Z,9.80
2018-03-26T09:47:37.117Z,9.00
2018-03-26T09:48:37.140Z,8.70
2018-03-26T09:49:37.156Z,9.20
2018-03-26T09:50:37.181Z,8.70
2018-03-26T09:51:37.204Z,8.80
2018-03-26T09:52:37.213Z,10.50
2018-03-26T09:53:37.242Z,9.30
2018-03-26T09:54:37.262Z,8.60
2018-03-26T09:55:37.334Z,8.40
2018-03-26T09:56:37.298Z,8.30
2018-03-26T09:57:37.325Z,8.20
2018-03-26T09:58:37.331Z,8.90
2018-03-26T09:59:37.365Z,8.50
2018-03-26T10:00:37.379Z,10.90
2018-03-26T10:01:37.399Z,8.20
2018-03-26T10:02:37.415Z,8.70
2018-03-26T10:03:37.439Z,8.60
2018-03-26T10:04:37.458Z,8.40
2018-03-26T10:05:37.483Z,8.80
2018-03-26T10:06:37.495Z,8.80
2018-03-26T10:07:37.531Z,8.10
2018-03-26T10:08:37.544Z,8.30
2018-03-26T10:09:37.556Z,8.70
2018-03-26T10:10:37.586Z,10.20
2018-03-26T10:11:37.607Z,10.40
2018-03-26T10:12:37.618Z,17.40
2018-03-26T10:13:37.650Z,11.60
2018-03-26T10:14:37.661Z,8.20
2018-03-26T10:15:37.685Z,9.40
2018-03-26T10:16:37.703Z,9.90
2018-03-26T10:17:37.739Z,9.20
2018-03-26T10:18:37.746Z,8.60
2018-03-26T10:19:37.766Z,10.20
2018-03-26T10:20:37.793Z,8.80
2018-03-26T10:21:37.806Z,9.00
2018-03-26T10:22:37.837Z,9.30
2018-03-26T10:23:37.853Z,9.00
2018-03-26T10:24:37.866Z,11.60
2018-03-26T10:25:37.889Z,9.00
2018-03-26T10:26:37.914Z,8.40
2018-03-26T10:27:37.926Z,9.20
2018-03-26T10:28:37.949Z,7.90
2018-03-26T10:29:37.972Z,8.30
2018-03-26T10:30:37.990Z,8.40
2018-03-26T10:31:38.015Z,8.20
2018-03-26T10:32:38.034Z,9.10
2018-03-26T10:33:38.081Z,9.50
2018-03-26T10:34:38.069Z,8.60
2018-03-26T10:35:38.094Z,9.40
2018-03-26T10:36:38.108Z,10.20
2018-03-26T10:37:38.136Z,19.60
2018-03-26T10:38:38.149Z,28.70
2018-03-26T10:39:38.190Z,312.90
2018-03-26T10:40:38.201Z,46.40
2018-03-26T10:41:38.234Z,10.80
2018-03-26T10:42:38.220Z,10.40
2018-03-26T10:43:38.286Z,9.90
2018-03-26T10:44:38.268Z,9.40
2018-03-26T10:45:38.282Z,9.60
2018-03-26T10:46:38.300Z,10.50
2018-03-26T10:47:38.318Z,11.50
2018-03-26T10:48:38.350Z,9.30
2018-03-26T10:49:38.363Z,12.00
2018-03-26T10:50:38.380Z,10.50
2018-03-26T10:51:38.401Z,9.10
2018-03-26T10:52:38.418Z,10.40
2018-03-26T10:53:38.433Z,9.00
2018-03-26T10:54:38.553Z,7.70
2018-03-26T10:55:38.478Z,7.70
2018-03-26T10:56:38.496Z,8.00
2018-03-26T10:57:38.512Z,9.50
2018-03-26T10:58:38.526Z,9.00
2018-03-26T10:59:38.552Z,7.30
2018-03-26T11:00:38.563Z,7.40
2018-03-26T11:01:38.586Z,23.90
2018-03-26T11:02:38.597Z,16.40
2018-03-26T11:03:38.625Z,11.80
2018-03-26T11:04:38.638Z,9.50
2018-03-26T11:05:38.666Z,7.60
2018-03-26T11:06:38.675Z,30.60
2018-03-26T11:07:38.686Z,9.50
2018-03-26T11:08:38.712Z,8.30
2018-03-26T11:09:38.734Z,7.70
2018-03-26T11:10:38.751Z,8.60
2018-03-26T11:11:38.766Z,7.80
2018-03-26T11:12:38.809Z,9.90
2018-03-26T11:13:38.797Z,8.40
2018-03-26T11:14:38.819Z,8.20
2018-03-26T11:15:38.833Z,9.60
2018-03-26T11:16:38.869Z,9.00
2018-03-26T11:17:38.870Z,10.10
2018-03-26T11:18:38.888Z,11.20
2018-03-26T11:19:38.904Z,16.00
2018-03-26T11:20:38.935Z,11.00
2018-03-26T11:21:38.936Z,7.60
2018-03-26T11:22:38.967Z,9.20
2018-03-26T11:23:38.974Z,12.00
2018-03-26T11:24:38.994Z,10.10
2018-03-26T11:25:39.074Z,8.10
2018-03-26T11:26:39.023Z,8.90
2018-03-26T11:27:39.055Z,7.60
2018-03-26T11:28:39.048Z,7.80
2018-03-26T11:29:39.091Z,7.00
2018-03-26T11:30:39.091Z,7.70
2018-03-26T11:31:39.163Z,8.30
2018-03-26T11:32:39.122Z,9.80
2018-03-26T11:33:39.148Z,8.70
2018-03-26T11:34:39.165Z,8.90
2018-03-26T11:35:39.173Z,7.20
2018-03-26T11:36:39.188Z,8.60
2018-03-26T11:37:39.199Z,9.80
2018-03-26T11:38:39.226Z,9.30
2018-03-26T11:39:39.276Z,8.00
2018-03-26T11:40:39.254Z,9.30
2018-03-26T11:41:39.264Z,8.20
2018-03-26T11:42:39.358Z,8.70
2018-03-26T11:43:39.402Z,11.20
2018-03-26T11:44:39.330Z,9.10
2018-03-26T11:45:39.346Z,19.60
2018-03-26T11:46:39.351Z,9.80
2018-03-26T11:47:39.369Z,14.40
2018-03-26T11:48:39.378Z,10.10
2018-03-26T11:49:39.402Z,8.40
2018-03-26T11:50:39.422Z,12.70
2018-03-26T11:51:39.410Z,8.50
2018-03-26T11:52:39.428Z,6.90
2018-03-26T11:53:39.439Z,8.30
2018-03-26T11:54:39.473Z,7.00
2018-03-26T11:55:39.514Z,7.30
2018-03-26T11:56:39.526Z,7.80
2018-03-26T11:57:39.512Z,8.70
2018-03-26T11:58:39.538Z,9.50
2018-03-26T11:59:39.551Z,9.30
2018-03-26T12:00:39.556Z,7.10
2018-03-26T12:01:39.563Z,9.60
2018-03-26T12:02:39.582Z,8.20
2018-03-26T12:03:39.609Z,8.50
2018-03-26T12:04:39.614Z,8.50
2018-03-26T12:05:39.619Z,9.40
2018-03-26T12:06:39.628Z,8.80
2018-03-26T12:07:39.641Z,8.10
2018-03-26T12:08:39.717Z,9.10
2018-03-26T12:09:39.715Z,8.60
2018-03-26T12:10:39.697Z,8.40
2018-03-26T12:11:39.739Z,7.70
2018-03-26T12:12:39.736Z,9.10
2018-03-26T12:13:39.750Z,9.10
2018-03-26T12:14:39.827Z,9.00
2018-03-26T12:15:39.815Z,9.10
2018-03-26T12:16:39.777Z,11.60
2018-03-26T12:17:39.815Z,9.50
2018-03-26T12:18:39.791Z,8.00
2018-03-26T12:19:39.812Z,9.10
2018-03-26T12:20:39.800Z,10.40
2018-03-26T12:21:39.818Z,8.10
2018-03-26T12:22:39.838Z,10.40
2018-03-26T12:23:39.859Z,9.80
2018-03-26T12:24:39.857Z,9.10
2018-03-26T12:25:39.886Z,8.40
2018-03-26T12:26:39.866Z,8.00
2018-03-26T12:27:39.884Z,12.80
2018-03-26T12:28:39.886Z,8.40
2018-03-26T12:29:39.899Z,9.40
2018-03-26T12:30:39.907Z,8.70
2018-03-26T12:31:39.910Z,7.70
2018-03-26T12:32:39.924Z,12.10
2018-03-26T12:33:39.935Z,9.50
2018-03-26T12:34:39.938Z,8.00
2018-03-26T12:35:39.951Z,8.50
2018-03-26T12:36:39.974Z,7.80
2018-03-26T12:37:39.961Z,11.50
2018-03-26T12:38:39.981Z,9.00
2018-03-26T12:39:39.994Z,6.80
2018-03-26T12:40:40.037Z,8.90
2018-03-26T12:41:40.002Z,8.20
2018-03-26T12:42:40.060Z,7.20
2018-03-26T12:43:40.021Z,10.40
2018-03-26T12:44:40.066Z,10.90
2018-03-26T12:45:40.104Z,8.50
2018-03-26T12:46:40.069Z,8.70
2018-03-26T12:47:40.081Z,8.10
2018-03-26T12:48:40.095Z,7.60
2018-03-26T12:49:40.104Z,12.80
2018-03-26T12:50:40.073Z,7.20
2018-03-26T12:51:40.126Z,9.30
2018-03-26T12:52:40.125Z,10.00
2018-03-26T12:53:40.116Z,8.40
2018-03-26T12:54:40.108Z,11.10
2018-03-26T12:55:40.144Z,9.50
2018-03-26T12:56:40.121Z,7.00
2018-03-26T12:57:40.151Z,8.90
2018-03-26T12:58:40.149Z,11.40
2018-03-26T12:59:40.159Z,8.70
2018-03-26T13:00:40.161Z,8.90
2018-03-26T13:01:40.194Z,8.60
2018-03-26T13:02:40.171Z,9.30
2018-03-26T13:03:40.214Z,12.40
2018-03-26T13:04:40.196Z,10.60
2018-03-26T13:05:40.195Z,12.10
2018-03-26T13:06:40.216Z,7.80
2018-03-26T13:07:40.231Z,8.60
2018-03-26T13:08:40.238Z,9.70
2018-03-26T13:09:40.224Z,8.80
2018-03-26T13:10:40.242Z,8.80
2018-03-26T13:11:40.243Z,8.90
2018-03-26T13:12:40.240Z,10.90
2018-03-26T13:13:40.257Z,8.40
2018-03-26T13:14:40.262Z,11.20
2018-03-26T13:15:40.257Z,9.90
2018-03-26T13:16:40.266Z,8.60
2018-03-26T13:17:40.280Z,12.00
2018-03-26T13:18:40.290Z,9.90
2018-03-26T13:19:40.292Z,10.70
2018-03-26T13:20:40.295Z,8.50
2018-03-26T13:21:40.311Z,10.30
2018-03-26T13:22:40.314Z,9.20
2018-03-26T13:23:40.316Z,9.40
2018-03-26T13:24:40.329Z,8.30
2018-03-26T13:25:40.326Z,10.40
2018-03-26T13:26:40.347Z,9.20
2018-03-26T13:27:40.358Z,9.00
2018-03-26T13:28:40.961Z,8.50
2018-03-26T13:29:40.393Z,8.00
2018-03-26T13:30:40.491Z,8.10
2018-03-26T13:31:40.443Z,9.40
2018-03-26T13:32:40.404Z,7.10
2018-03-26T13:33:40.388Z,13.30
2018-03-26T13:34:40.386Z,11.00
2018-03-26T13:35:40.401Z,11.40
2018-03-26T13:36:40.417Z,7.40
2018-03-26T13:37:40.416Z,8.20
2018-03-26T13:38:40.421Z,7.30
2018-03-26T13:39:40.404Z,7.60
2018-03-26T13:40:40.432Z,7.50
2018-03-26T13:41:40.441Z,8.30
2018-03-26T13:42:40.424Z,11.20
2018-03-26T13:43:40.453Z,9.30
2018-03-26T13:44:40.494Z,9.40
2018-03-26T13:45:40.446Z,8.30
2018-03-26T13:46:40.477Z,9.30
2018-03-26T13:47:40.462Z,9.70
2018-03-26T13:48:40.469Z,8.00
2018-03-26T13:49:40.476Z,9.30
2018-03-26T13:50:40.477Z,9.90
2018-03-26T13:51:40.488Z,8.60
2018-03-26T13:52:40.519Z,9.50
2018-03-26T13:53:40.506Z,9.10
2018-03-26T13:54:40.515Z,10.90
2018-03-26T13:55:40.524Z,10.70
2018-03-26T13:56:40.525Z,18.60
2018-03-26T13:57:40.530Z,9.20
2018-03-26T13:58:40.593Z,8.90
2018-03-26T13:59:40.550Z,7.50
2018-03-26T14:00:40.545Z,8.40
2018-03-26T14:01:40.552Z,7.80
2018-03-26T14:02:40.556Z,10.20
2018-03-26T14:03:40.565Z,9.30
2018-03-26T14:04:40.567Z,11.20
2018-03-26T14:05:40.577Z,7.50
2018-03-26T14:06:40.585Z,10.70
2018-03-26T14:07:40.592Z,8.70
2018-03-26T14:08:40.594Z,7.90
2018-03-26T14:09:40.615Z,7.60
2018-03-26T14:10:40.611Z,8.50
2018-03-26T14:11:40.619Z,8.40
2018-03-26T14:12:40.613Z,7.40
2018-03-26T14:13:40.626Z,6.90
2018-03-26T14:14:40.622Z,9.20
2018-03-26T14:15:40.632Z,6.90
2018-03-26T14:16:40.639Z,6.90
2018-03-26T14:17:40.643Z,9.80
2018-03-26T14:18:40.651Z,8.30
2018-03-26T14:19:40.660Z,8.40
2018-03-26T14:20:40.659Z,8.20
2018-03-26T14:21:40.672Z,8.60
2018-03-26T14:22:40.672Z,9.10
2018-03-26T14:23:40.686Z,11.00
2018-03-26T14:24:40.690Z,8.30
2018-03-26T14:25:40.697Z,9.60
2018-03-26T14:26:40.700Z,7.70
2018-03-26T14:27:40.716Z,8.20
2018-03-26T14:28:40.711Z,7.90
2018-03-26T14:29:40.767Z,7.60
2018-03-26T14:30:40.722Z,9.10
2018-03-26T14:31:40.730Z,9.50
2018-03-26T14:32:40.754Z,7.00
2018-03-26T14:33:40.740Z,8.90
2018-03-26T14:34:40.853Z,14.00
2018-03-26T14:35:40.747Z,8.50
2018-03-26T14:36:40.758Z,7.70
2018-03-26T14:37:40.770Z,9.30
2018-03-26T14:38:40.763Z,7.40
2018-03-26T14:39:40.771Z,8.50
2018-03-26T14:40:40.777Z,10.80
2018-03-26T14:41:40.783Z,7.30
2018-03-26T14:42:40.802Z,9.00
2018-03-26T14:43:40.800Z,7.30
2018-03-26T14:44:40.811Z,8.80
2018-03-26T14:45:40.814Z,7.40
2018-03-26T14:46:40.818Z,9.10
2018-03-26T14:47:40.826Z,7.40
2018-03-26T14:48:40.826Z,7.20
2018-03-26T14:49:40.837Z,7.30
2018-03-26T14:50:40.836Z,7.90
2018-03-26T14:51:41.461Z,7.30
2018-03-26T14:52:40.834Z,7.60
2018-03-26T14:53:40.862Z,9.60
2018-03-26T14:54:40.850Z,9.30
2018-03-26T14:55:40.875Z,10.10
2018-03-26T14:56:40.883Z,7.80
2018-03-26T14:57:40.900Z,8.90
2018-03-26T14:58:40.891Z,9.70
2018-03-26T14:59:40.897Z,7.50
2018-03-26T15:00:40.893Z,8.00
2018-03-26T15:01:40.897Z,7.90
2018-03-26T15:02:40.927Z,9.10
2018-03-26T15:03:40.912Z,6.60